Flight Track Log - Related Links

Times and Time Zones

All times are in EDT time to prevent confusion due to time zone crossing. See the N8342F flight status page for this flight to view local times or setup timezone preferences in your user account.

Time Position Orientation Groundspeed Altitude Reporting Facility
EDT Latitude Longitude Course Direction KTS MPH feet Rate Location/Type
Thu 02:18:55 PM 35.4842 -80.5881 327° Northwest 139 160 4,500  Level Atlanta Center
Thu 02:19:50 PM 35.5139 -80.6122 327° Northwest 141 162 4,500 55 Level Atlanta Center
Thu 02:20:45 PM 35.5436 -80.6289 335° Northwest 138 159 4,600 103 Climbing Atlanta Center
Thu 02:21:46 PM 35.5794 -80.6453 340° North 129 148 4,700 220 Climbing Atlanta Center
Thu 02:22:07 PM 35.5881 -80.6500 336° Northwest 132 152 4,900 636 Climbing Atlanta Center
Thu 02:22:52 PM 35.6156 -80.6617 341° North 130 150 5,400 700 Climbing Atlanta Center
Thu 02:23:07 PM 35.6197 -80.6639 337° Northwest 132 152 5,600 640 Climbing Atlanta Center
Thu 02:24:07 PM 35.6514 -80.6781 340° North 118 136 6,200 600 Climbing Atlanta Center
Thu 02:25:07 PM 35.6789 -80.6922 337° Northwest 113 130 6,800 550 Climbing Atlanta Center
Thu 02:26:07 PM 35.7125 -80.7036 345° North 113 130 7,300 450 Climbing Atlanta Center
Thu 02:27:07 PM 35.7422 -80.7153 342° North 113 130 7,700 500 Climbing Atlanta Center
Thu 02:28:07 PM 35.7717 -80.7242 346° North 113 130 8,300 450 Climbing Atlanta Center
Thu 02:29:07 PM 35.7989 -80.7333 345° North 113 130 8,600 350 Climbing Atlanta Center
Thu 02:30:07 PM 35.8264 -80.7478 337° Northwest 113 130 9,000 400 Climbing Atlanta Center
Thu 02:31:07 PM 35.8539 -80.7594 341° North 113 130 9,400 400 Climbing Atlanta Center
Thu 02:32:07 PM 35.8792 -80.7736 336° Northwest 113 130 9,800 300 Climbing Atlanta Center
Thu 02:33:07 PM 35.9067 -80.7881 337° Northwest 107 123 10,000 100 Climbing Atlanta Center
Thu 02:34:07 PM 35.9364 -80.8047 336° Northwest 107 123 10,000  Level Atlanta Center
Thu 02:35:07 PM 35.9703 -80.8189 341° North 113 130 10,000  Level Atlanta Center
Thu 02:36:07 PM 36.0019 -80.8356 337° Northwest 118 136 10,000  Level Atlanta Center
Thu 02:37:07 PM 36.0356 -80.8494 342° North 118 136 10,000  Level Atlanta Center
Thu 02:38:07 PM 36.0714 -80.8636 342° North 129 148 10,000  Level Atlanta Center
Thu 02:39:07 PM 36.1053 -80.8803 338° Northwest 129 148 10,000  Level Atlanta Center
Thu 02:40:07 PM 36.1411 -80.8942 343° North 129 148 10,000  Level Atlanta Center
Thu 02:41:07 PM 36.1747 -80.9108 338° Northwest 129 148 10,000  Level Atlanta Center
Thu 02:42:07 PM 36.2067 -80.9356 328° Northwest 129 148 10,000  Level Atlanta Center
Thu 02:43:07 PM 36.2386 -80.9600 328° Northwest 134 154 10,000  Level Atlanta Center
Thu 02:44:07 PM 36.2664 -80.9819 328° Northwest 134 154 10,000  Level Atlanta Center
Thu 02:45:07 PM 36.2983 -81.0067 328° Northwest 134 154 10,000  Level Atlanta Center
Thu 02:46:07 PM 36.3261 -81.0364 319° Northwest 134 154 10,000  Level Atlanta Center
Thu 02:47:07 PM 36.3539 -81.0639 321° Northwest 134 154 10,000  Level Atlanta Center
Thu 02:48:07 PM 36.3794 -81.0886 322° Northwest 129 148 10,000  Level Atlanta Center
Thu 02:49:07 PM 36.4031 -81.1214 312° West 124 143 10,000  Level Atlanta Center
Thu 02:50:07 PM 36.4308 -81.1486 322° Northwest 124 143 10,000  Level Atlanta Center
Thu 02:51:07 PM 36.4625 -81.1656 337° Northwest 124 143 10,000  Level Atlanta Center
Thu 02:52:07 PM 36.4964 -81.1825 338° Northwest 124 143 10,000  Level Atlanta Center
Thu 02:53:07 PM 36.5322 -81.1994 339° North 124 143 10,000  Level Atlanta Center
Thu 02:54:07 PM 36.5681 -81.2136 342° North 129 148 10,000 -50 Level Atlanta Center
Thu 02:55:07 PM 36.6039 -81.2278 342° North 129 148 9,900 -50 Descending Atlanta Center
Thu 02:56:07 PM 36.6397 -81.2472 336° Northwest 129 148 9,900  Level Atlanta Center
Thu 02:57:07 PM 36.6756 -81.2614 342° North 129 148 9,900  Level Atlanta Center
Thu 02:58:07 PM 36.7133 -81.2758 343° North 134 154 9,900  Level Atlanta Center
Thu 02:59:07 PM 36.7531 -81.2847 350° North 134 154 9,900  Level Atlanta Center
Thu 03:00:07 PM 36.7969 -81.2908 354° North 134 154 9,900  Level Atlanta Center
Thu 03:01:07 PM 36.8350 -81.3053 343° North 140 161 9,900  Level Atlanta Center
Thu 03:02:07 PM 36.8706 -81.3169 345° North 140 161 9,900  Level Atlanta Center
Thu 03:03:07 PM 36.9064 -81.3364 337° Northwest 140 161 9,900  Level Atlanta Center
Thu 03:05:20 PM 36.9864 -81.3678 343° North 136 157 9,900  Level Indianapolis Center
Thu 03:06:22 PM 37.0214 -81.3833 340° North 136 157 9,900  Level Indianapolis Center
Thu 03:07:24 PM 37.0606 -81.4006 341° North 136 157 9,900  Level Indianapolis Center
Thu 03:08:26 PM 37.0967 -81.4164 341° North 136 157 9,900  Level Indianapolis Center
Thu 03:09:28 PM 37.1317 -81.4297 343° North 136 157 9,900  Level Indianapolis Center
Thu 03:10:30 PM 37.1658 -81.4431 343° North 134 154 9,900  Level Indianapolis Center
Thu 03:11:32 PM 37.2011 -81.4586 341° North 134 154 9,900  Level Indianapolis Center
Thu 03:12:34 PM 37.2417 -81.4767 340° North 133 153 9,900  Level Indianapolis Center
Thu 03:13:36 PM 37.2756 -81.4922 340° North 133 153 9,900  Level Indianapolis Center
Thu 03:14:38 PM 37.3092 -81.5072 340° North 133 153 9,900  Level Indianapolis Center
Thu 03:15:40 PM 37.3422 -81.5231 339° North 131 151 9,900  Level Indianapolis Center
Thu 03:16:42 PM 37.3772 -81.5389 340° North 131 151 9,900  Level Indianapolis Center
Thu 03:17:44 PM 37.4172 -81.5569 340° North 131 151 9,900  Level Indianapolis Center
Thu 03:18:46 PM 37.4503 -81.5714 341° North 131 151 9,900  Level Indianapolis Center
Thu 03:19:48 PM 37.4844 -81.5867 340° North 130 150 9,900  Level Indianapolis Center
Thu 03:20:50 PM 37.5208 -81.6033 340° North 133 153 9,900  Level Indianapolis Center
Thu 03:21:52 PM 37.5564 -81.6186 341° North 133 153 9,900  Level Indianapolis Center
Thu 03:22:55 PM 37.5900 -81.6333 341° North 132 152 9,900  Level Indianapolis Center
Thu 03:23:57 PM 37.6306 -81.6494 343° North 131 151 9,900  Level Indianapolis Center
Thu 03:24:59 PM 37.6653 -81.6650 340° North 131 151 9,900  Level Indianapolis Center
Thu 03:26:01 PM 37.6981 -81.6800 340° North 131 151 9,900  Level Indianapolis Center
Thu 03:26:17 PM 37.7081 -81.6894 323° Northwest 129 148 9,900 97 Level Indianapolis Center
Thu 03:27:03 PM 37.7303 -81.6964 346° North 129 148 10,000 56 Climbing Indianapolis Center
Thu 03:28:05 PM 37.7628 -81.7106 341° North 128 147 10,000  Level Indianapolis Center
Thu 03:29:07 PM 37.7994 -81.7281 339° North 123 142 10,000  Level Indianapolis Center
Thu 03:30:10 PM 37.8322 -81.7417 342° North 123 142 10,000  Level Indianapolis Center
Thu 03:31:12 PM 37.8628 -81.7556 340° North 123 142 10,000  Level Indianapolis Center
Thu 03:32:14 PM 37.8969 -81.7708 341° North 124 143 10,000  Level Indianapolis Center
Thu 03:33:16 PM 37.9344 -81.7928 335° Northwest 124 143 10,000  Level Indianapolis Center
Thu 03:34:18 PM 37.9628 -81.8175 325° Northwest 124 143 10,000  Level Indianapolis Center
Thu 03:35:20 PM 37.9931 -81.8392 331° Northwest 124 143 10,000  Level Indianapolis Center
Thu 03:36:22 PM 38.0231 -81.8608 330° Northwest 124 143 10,000  Level Indianapolis Center
Thu 03:37:24 PM 38.0533 -81.8817 332° Northwest 124 143 10,000  Level Indianapolis Center
Thu 03:38:19 PM 38.0867 -81.8994 337° Northwest 138 159 10,000  Level Indianapolis Center
Thu 03:39:29 PM 38.1344 -81.9108 349° North 134 154 10,000 -227 Level Indianapolis Center
Thu 03:40:31 PM 38.1703 -81.9231 345° North 134 154 9,500 -823 Descending Indianapolis Center
Thu 03:41:33 PM 38.2061 -81.9433 336° Northwest 139 160 8,300 -1,278 Descending Indianapolis Center
Thu 03:42:19 PM 38.2253 -81.9719 310° West 134 154 7,200 -1,355 Descending Indianapolis Center
Thu 03:42:35 PM 38.2317 -81.9744 343° North 133 153 6,900 -1,231 Descending Indianapolis Center
Thu 03:43:37 PM 38.2636 -81.9967 331° Northwest 132 152 5,600 -1,258 Descending Indianapolis Center
Thu 03:44:39 PM 38.2981 -82.0092 344° North 132 152 4,300 -774 Descending Indianapolis Center
Thu 03:45:41 PM 38.3369 -82.0283 339° North 129 148 4,000 -144 Descending Indianapolis Center
Thu 03:46:44 PM 38.3694 -82.0414 343° North 125 144 4,000  Level Indianapolis Center
Thu 03:47:46 PM 38.4025 -82.0619 334° Northwest 126 145 4,000  Level Indianapolis Center
Thu 03:48:48 PM 38.4347 -82.0819 334° Northwest 128 147 4,000  Level Indianapolis Center
Thu 03:49:50 PM 38.4728 -82.0989 341° North 128 147 4,000  Level Indianapolis Center
Thu 03:50:52 PM 38.5044 -82.1119 342° North 130 150 4,000  Level Indianapolis Center
Thu 03:51:54 PM 38.5389 -82.1292 339° North 130 150 4,000  Level Indianapolis Center
Thu 03:52:56 PM 38.5803 -82.1453 343° North 131 151 4,000  Level Indianapolis Center
Thu 03:53:59 PM 38.6158 -82.1603 342° North 131 151 4,000  Level Indianapolis Center
Thu 03:55:01 PM 38.6511 -82.1747 342° North 131 151 4,000  Level Indianapolis Center
Thu 03:56:03 PM 38.6858 -82.1900 341° North 131 151 4,000  Level Indianapolis Center
Thu 03:57:05 PM 38.7197 -82.2058 340° North 131 151 4,000  Level Indianapolis Center
Thu 03:58:07 PM 38.7536 -82.2200 342° North 131 151 4,000  Level Indianapolis Center
Thu 03:59:09 PM 38.7936 -82.2372 341° North 131 151 4,000  Level Indianapolis Center
Thu 04:00:11 PM 38.8275 -82.2522 341° North 130 150 4,000  Level Indianapolis Center
Thu 04:01:14 PM 38.8608 -82.2667 341° North 130 150 4,000  Level Indianapolis Center
Thu 04:02:16 PM 38.8947 -82.2814 341° North 130 150 4,000  Level Indianapolis Center
Thu 04:03:18 PM 38.9294 -82.2964 341° North 130 150 4,000  Level Indianapolis Center
Thu 04:04:20 PM 38.9631 -82.3100 343° North 130 150 4,000  Level Indianapolis Center
Thu 04:05:22 PM 39.0050 -82.3286 341° North 130 150 4,000  Level Indianapolis Center
Thu 04:06:24 PM 39.0389 -82.3431 342° North 130 150 4,000  Level Indianapolis Center
Thu 04:07:26 PM 39.0728 -82.3572 342° North 130 150 4,000  Level Indianapolis Center
Thu 04:08:29 PM 39.1061 -82.3728 340° North 130 150 4,000  Level Indianapolis Center
Thu 04:09:31 PM 39.1422 -82.3869 343° North 130 150 4,000  Level Indianapolis Center
Thu 04:10:33 PM 39.1764 -82.4028 340° North 130 150 4,000  Level Indianapolis Center
Thu 04:11:35 PM 39.2139 -82.4186 342° North 135 155 4,000  Level Indianapolis Center
Thu 04:12:37 PM 39.2550 -82.4353 343° North 133 153 4,000  Level Indianapolis Center
Thu 04:13:34 PM 39.2886 -82.4539 337° Northwest 128 147 4,000 -48 Level Indianapolis Center
Thu 04:14:41 PM 39.3217 -82.4661 344° North 128 147 3,900  Descending Indianapolis Center
Thu 04:15:44 PM 39.3567 -82.4817 341° North 128 147 4,000 48 Climbing Indianapolis Center
Thu 04:16:46 PM 39.3903 -82.4967 341° North 128 147 4,000  Level Indianapolis Center
Thu 04:17:48 PM 39.4239 -82.5117 341° North 128 147 4,000  Level Indianapolis Center
Thu 04:18:50 PM 39.4642 -82.5283 342° North 128 147 4,000  Level Indianapolis Center
Thu 04:19:46 PM 39.4947 -82.5419 341° North 126 145 4,000 -48 Level Indianapolis Center
Thu 04:20:54 PM 39.5294 -82.5575 341° North 127 146 3,900  Descending Indianapolis Center
Thu 04:21:05 PM 39.5369 -82.5622 334° Northwest 123 142 4,000 97 Climbing Indianapolis Center
Thu 04:21:56 PM 39.5600 -82.5722 342° North 123 142 4,000 -53 Level Indianapolis Center
Thu 04:22:59 PM 39.5925 -82.5875 340° North 123 142 3,900 -95 Descending Indianapolis Center

Login

Don't have an account? Register now (free) for customized features, flight alerts, and more!